JAF5HT BKPR-EBBR
Flight info
| Callsign | JAF5HT |
|---|---|
| Flight time | 2h 18m |
| Altitude | 40000 |
| Route | KUKAD1D KUKAD DCT RETRA DCT GLOMY DCT ELTIB DCT TUPUS DCT GORPA DCT SIMBA DCT MAMOR DCT INBED DCT TEKTU DCT TESGA DCT UMUPU T880 BATTY |
| Aircraft | B38M/M-SDE1FGHILORVWXY/HB1 |
Departure
| Time | 2026-04-17 09:15 |
|---|---|
| Airport | Priština Adem Jashari International Airport (BKPR) |
Arrival
| Time | 2026-04-17 11:33 |
|---|---|
| Airport | Brussels Airport (EBBR) |
| Time | Latitude | Longitude | Altitude | Speed | Heading |
|---|---|---|---|---|---|
| 2026-04-17 08:48 | 42.57396 | 21.03157 | 1789 ft | 0 kts | 265° |
| 2026-04-17 09:06 | 42.57396 | 21.03161 | 1789 ft | 3 kts | 265° |
| 2026-04-17 09:06 | 42.57400 | 21.03196 | 1789 ft | 4 kts | 252° |
| 2026-04-17 09:07 | 42.57412 | 21.03225 | 1788 ft | 4 kts | 214° |
| 2026-04-17 09:07 | 42.57426 | 21.03231 | 1788 ft | 0 kts | 175° |
| 2026-04-17 09:10 | 42.57400 | 21.03234 | 1789 ft | 5 kts | 175° |
| 2026-04-17 09:10 | 42.57353 | 21.03241 | 1789 ft | 9 kts | 166° |
| 2026-04-17 09:10 | 42.57318 | 21.03313 | 1789 ft | 11 kts | 124° |
| 2026-04-17 09:11 | 42.57243 | 21.03348 | 1789 ft | 13 kts | 176° |
| 2026-04-17 09:11 | 42.57141 | 21.03359 | 1787 ft | 17 kts | 175° |
| 2026-04-17 09:11 | 42.57019 | 21.03371 | 1788 ft | 18 kts | 178° |
| 2026-04-17 09:11 | 42.56887 | 21.03390 | 1786 ft | 21 kts | 174° |
| 2026-04-17 09:12 | 42.56729 | 21.03401 | 1784 ft | 24 kts | 175° |
| 2026-04-17 09:12 | 42.56562 | 21.03418 | 1786 ft | 24 kts | 175° |
| 2026-04-17 09:12 | 42.56385 | 21.03433 | 1787 ft | 26 kts | 175° |
| 2026-04-17 09:12 | 42.56219 | 21.03452 | 1791 ft | 23 kts | 176° |
| 2026-04-17 09:13 | 42.56055 | 21.03469 | 1795 ft | 24 kts | 176° |
| 2026-04-17 09:13 | 42.55892 | 21.03485 | 1799 ft | 23 kts | 176° |
| 2026-04-17 09:13 | 42.55804 | 21.03556 | 1801 ft | 16 kts | 88° |
| 2026-04-17 09:13 | 42.55813 | 21.03704 | 1801 ft | 14 kts | 77° |
| 2026-04-17 09:14 | 42.55876 | 21.03733 | 1797 ft | 12 kts | 354° |
| 2026-04-17 09:14 | 42.56133 | 21.03706 | 1793 ft | 71 kts | 356° |
| 2026-04-17 09:14 | 42.56853 | 21.03633 | 1787 ft | 133 kts | 355° |
| 2026-04-17 09:14 | 42.57912 | 21.03543 | 1937 ft | 167 kts | 359° |
| 2026-04-17 09:15 | 42.59103 | 21.03434 | 2694 ft | 172 kts | 357° |
| 2026-04-17 09:15 | 42.60307 | 21.03294 | 3472 ft | 178 kts | 356° |
| 2026-04-17 09:15 | 42.61573 | 21.03136 | 4195 ft | 188 kts | 357° |
| 2026-04-17 09:15 | 42.62930 | 21.02998 | 4833 ft | 203 kts | 356° |
| 2026-04-17 09:16 | 42.64357 | 21.02483 | 5404 ft | 224 kts | 335° |
| 2026-04-17 09:16 | 42.65568 | 21.01045 | 6115 ft | 239 kts | 308° |
| 2026-04-17 09:16 | 42.66332 | 20.98989 | 6900 ft | 247 kts | 296° |
| 2026-04-17 09:16 | 42.67145 | 20.96900 | 7636 ft | 254 kts | 305° |
| 2026-04-17 09:17 | 42.68104 | 20.94830 | 8382 ft | 260 kts | 305° |
| 2026-04-17 09:17 | 42.68962 | 20.92650 | 9100 ft | 272 kts | 291° |
| 2026-04-17 09:17 | 42.69235 | 20.90014 | 9591 ft | 292 kts | 268° |
| 2026-04-17 09:17 | 42.68841 | 20.87293 | 10302 ft | 299 kts | 253° |
| 2026-04-17 09:18 | 42.68129 | 20.84592 | 10981 ft | 304 kts | 249° |
| 2026-04-17 09:18 | 42.67354 | 20.82025 | 12087 ft | 298 kts | 248° |
| 2026-04-17 09:18 | 42.66544 | 20.79339 | 12536 ft | 317 kts | 248° |
| 2026-04-17 09:18 | 42.65695 | 20.76470 | 13007 ft | 335 kts | 248° |
| 2026-04-17 09:19 | 42.64816 | 20.73475 | 13620 ft | 347 kts | 248° |
| 2026-04-17 09:19 | 42.63923 | 20.70422 | 14469 ft | 348 kts | 249° |
| 2026-04-17 09:19 | 42.63027 | 20.67357 | 15293 ft | 351 kts | 249° |
| 2026-04-17 09:19 | 42.62121 | 20.64263 | 16161 ft | 353 kts | 249° |
| 2026-04-17 09:20 | 42.61211 | 20.61160 | 16968 ft | 355 kts | 249° |
| 2026-04-17 09:20 | 42.60293 | 20.58028 | 17743 ft | 359 kts | 250° |
| 2026-04-17 09:20 | 42.59718 | 20.54745 | 18481 ft | 359 kts | 269° |
| 2026-04-17 09:20 | 42.60069 | 20.51405 | 19121 ft | 359 kts | 289° |
| 2026-04-17 09:21 | 42.61100 | 20.48313 | 19749 ft | 361 kts | 297° |
| 2026-04-17 09:21 | 42.62217 | 20.45237 | 20369 ft | 364 kts | 296° |
| 2026-04-17 09:21 | 42.63328 | 20.42130 | 21015 ft | 367 kts | 296° |
| 2026-04-17 09:21 | 42.64421 | 20.39043 | 21641 ft | 369 kts | 296° |
| 2026-04-17 09:22 | 42.65536 | 20.35883 | 22265 ft | 372 kts | 296° |
| 2026-04-17 09:22 | 42.66658 | 20.32698 | 22871 ft | 375 kts | 296° |
| 2026-04-17 09:22 | 42.67794 | 20.29471 | 23487 ft | 379 kts | 295° |
| 2026-04-17 09:22 | 42.68933 | 20.26224 | 24010 ft | 382 kts | 295° |
| 2026-04-17 09:23 | 42.70081 | 20.22954 | 24529 ft | 385 kts | 295° |
| 2026-04-17 09:23 | 42.71235 | 20.19659 | 25034 ft | 387 kts | 295° |
| 2026-04-17 09:23 | 42.72386 | 20.16373 | 25558 ft | 390 kts | 295° |
| 2026-04-17 09:23 | 42.73554 | 20.13030 | 26051 ft | 392 kts | 295° |
| 2026-04-17 09:24 | 42.74733 | 20.09655 | 26552 ft | 395 kts | 295° |
| 2026-04-17 09:24 | 42.75914 | 20.06269 | 27046 ft | 397 kts | 295° |
| 2026-04-17 09:24 | 42.77102 | 20.02856 | 27521 ft | 400 kts | 295° |
| 2026-04-17 09:24 | 42.78295 | 19.99429 | 28001 ft | 403 kts | 295° |
| 2026-04-17 09:25 | 42.79497 | 19.95969 | 28473 ft | 405 kts | 295° |
| 2026-04-17 09:25 | 42.80708 | 19.92481 | 28923 ft | 408 kts | 294° |
| 2026-04-17 09:25 | 42.81923 | 19.88973 | 29374 ft | 411 kts | 294° |
| 2026-04-17 09:25 | 42.83146 | 19.85442 | 29793 ft | 414 kts | 294° |
| 2026-04-17 09:26 | 42.84377 | 19.81880 | 30201 ft | 416 kts | 294° |
| 2026-04-17 09:26 | 42.85611 | 19.78304 | 30559 ft | 419 kts | 294° |
| 2026-04-17 09:26 | 42.86853 | 19.74704 | 30923 ft | 421 kts | 295° |
| 2026-04-17 09:26 | 42.88085 | 19.71126 | 31271 ft | 423 kts | 295° |
| 2026-04-17 09:27 | 42.89339 | 19.67483 | 31600 ft | 425 kts | 295° |
| 2026-04-17 09:27 | 42.90593 | 19.63834 | 31950 ft | 427 kts | 295° |
| 2026-04-17 09:27 | 42.91858 | 19.60146 | 32309 ft | 429 kts | 295° |
| 2026-04-17 09:27 | 42.93126 | 19.56444 | 32653 ft | 431 kts | 295° |
| 2026-04-17 09:28 | 42.94399 | 19.52722 | 32963 ft | 434 kts | 295° |
| 2026-04-17 09:28 | 42.95675 | 19.48989 | 33323 ft | 435 kts | 295° |
| 2026-04-17 09:28 | 42.96961 | 19.45226 | 33729 ft | 436 kts | 295° |
| 2026-04-17 09:28 | 42.98239 | 19.41479 | 34179 ft | 435 kts | 295° |
| 2026-04-17 09:29 | 42.99508 | 19.37755 | 34563 ft | 434 kts | 295° |
| 2026-04-17 09:29 | 43.00785 | 19.34007 | 34943 ft | 433 kts | 295° |
| 2026-04-17 09:29 | 43.02050 | 19.30283 | 35317 ft | 432 kts | 295° |
| 2026-04-17 09:29 | 43.03299 | 19.26602 | 35678 ft | 432 kts | 295° |
| 2026-04-17 09:30 | 43.04576 | 19.22832 | 36051 ft | 431 kts | 295° |
| 2026-04-17 09:30 | 43.05820 | 19.19160 | 36384 ft | 430 kts | 295° |
| 2026-04-17 09:30 | 43.07076 | 19.15443 | 36728 ft | 430 kts | 295° |
| 2026-04-17 09:30 | 43.08328 | 19.11729 | 37048 ft | 430 kts | 295° |
| 2026-04-17 09:31 | 43.09578 | 19.08016 | 37364 ft | 429 kts | 295° |
| 2026-04-17 09:31 | 43.10828 | 19.04300 | 37659 ft | 429 kts | 296° |
| 2026-04-17 09:31 | 43.12070 | 19.00599 | 37943 ft | 429 kts | 296° |
| 2026-04-17 09:31 | 43.13319 | 18.96873 | 38255 ft | 428 kts | 296° |
| 2026-04-17 09:32 | 43.14561 | 18.93166 | 38539 ft | 428 kts | 296° |
| 2026-04-17 09:32 | 43.15805 | 18.89446 | 38798 ft | 428 kts | 296° |
| 2026-04-17 09:32 | 43.17027 | 18.85787 | 39015 ft | 428 kts | 296° |
| 2026-04-17 09:32 | 43.18265 | 18.82078 | 39196 ft | 428 kts | 296° |
| 2026-04-17 09:33 | 43.19501 | 18.78365 | 39358 ft | 429 kts | 296° |
| 2026-04-17 09:33 | 43.20738 | 18.74645 | 39541 ft | 429 kts | 296° |
| 2026-04-17 09:33 | 43.21973 | 18.70922 | 39714 ft | 429 kts | 296° |
| 2026-04-17 09:33 | 43.23209 | 18.67195 | 39851 ft | 430 kts | 296° |
| 2026-04-17 09:34 | 43.24444 | 18.63466 | 40020 ft | 429 kts | 296° |
| 2026-04-17 09:34 | 43.25680 | 18.59728 | 40090 ft | 431 kts | 296° |
| 2026-04-17 09:34 | 43.28148 | 18.52248 | 40087 ft | 429 kts | 296° |
| 2026-04-17 09:35 | 43.30607 | 18.44776 | 40088 ft | 430 kts | 296° |
| 2026-04-17 09:35 | 43.33047 | 18.37341 | 40089 ft | 430 kts | 296° |
| 2026-04-17 09:36 | 43.35497 | 18.29854 | 40089 ft | 430 kts | 296° |
| 2026-04-17 09:36 | 43.37948 | 18.22344 | 40074 ft | 430 kts | 296° |
| 2026-04-17 09:37 | 43.40390 | 18.14840 | 40068 ft | 430 kts | 295° |
| 2026-04-17 09:37 | 43.42830 | 18.07322 | 40057 ft | 430 kts | 295° |
| 2026-04-17 09:38 | 43.45265 | 17.99793 | 40056 ft | 430 kts | 295° |
| 2026-04-17 09:38 | 43.47681 | 17.92309 | 40049 ft | 430 kts | 295° |
| 2026-04-17 09:39 | 43.50104 | 17.84776 | 40059 ft | 431 kts | 295° |
| 2026-04-17 09:39 | 43.52527 | 17.77224 | 40072 ft | 431 kts | 295° |
| 2026-04-17 09:40 | 43.54962 | 17.69674 | 40058 ft | 430 kts | 298° |
| 2026-04-17 09:40 | 43.56626 | 17.66298 | 40099 ft | 425 kts | 314° |
| 2026-04-17 09:40 | 43.58822 | 17.63575 | 40115 ft | 425 kts | 320° |
| 2026-04-17 09:41 | 43.63331 | 17.58379 | 40109 ft | 425 kts | 321° |
| 2026-04-17 09:41 | 43.67928 | 17.53165 | 40109 ft | 424 kts | 321° |
| 2026-04-17 09:42 | 43.72495 | 17.47999 | 40117 ft | 424 kts | 321° |
| 2026-04-17 09:42 | 43.77034 | 17.42855 | 40122 ft | 424 kts | 321° |
| 2026-04-17 09:43 | 43.81601 | 17.37670 | 40126 ft | 424 kts | 321° |
| 2026-04-17 09:43 | 43.86169 | 17.32472 | 40128 ft | 424 kts | 321° |
| 2026-04-17 09:44 | 43.90727 | 17.27276 | 40129 ft | 424 kts | 321° |
| 2026-04-17 09:44 | 43.94520 | 17.22943 | 40133 ft | 425 kts | 321° |
| 2026-04-17 09:45 | 43.99821 | 17.16876 | 40135 ft | 425 kts | 321° |
| 2026-04-17 09:45 | 44.04383 | 17.11643 | 40138 ft | 425 kts | 321° |
| 2026-04-17 09:46 | 44.08173 | 17.07287 | 40140 ft | 424 kts | 321° |
| 2026-04-17 09:46 | 44.12720 | 17.02050 | 40148 ft | 424 kts | 321° |
| 2026-04-17 09:47 | 44.17272 | 16.96799 | 40146 ft | 425 kts | 321° |
| 2026-04-17 09:47 | 44.21816 | 16.91544 | 40149 ft | 425 kts | 321° |
| 2026-04-17 09:48 | 44.26371 | 16.86268 | 40153 ft | 425 kts | 321° |
| 2026-04-17 09:48 | 44.30979 | 16.81111 | 40148 ft | 424 kts | 326° |
| 2026-04-17 09:49 | 44.35819 | 16.76410 | 40152 ft | 424 kts | 325° |
| 2026-04-17 09:49 | 44.40602 | 16.71661 | 40157 ft | 424 kts | 324° |
| 2026-04-17 09:50 | 44.45399 | 16.66875 | 40158 ft | 423 kts | 324° |
| 2026-04-17 09:50 | 44.50196 | 16.62077 | 40160 ft | 424 kts | 324° |
| 2026-04-17 09:51 | 44.54995 | 16.57268 | 40160 ft | 423 kts | 324° |
| 2026-04-17 09:51 | 44.59780 | 16.52463 | 40166 ft | 423 kts | 324° |
| 2026-04-17 09:52 | 44.64578 | 16.47634 | 40171 ft | 423 kts | 324° |
| 2026-04-17 09:52 | 44.69365 | 16.42807 | 40166 ft | 423 kts | 324° |
| 2026-04-17 09:53 | 44.74152 | 16.37969 | 40174 ft | 423 kts | 324° |
| 2026-04-17 09:53 | 44.78908 | 16.33153 | 40167 ft | 423 kts | 324° |
| 2026-04-17 09:54 | 44.83687 | 16.28303 | 40178 ft | 423 kts | 324° |
| 2026-04-17 09:54 | 44.88455 | 16.23455 | 40178 ft | 423 kts | 324° |
| 2026-04-17 09:55 | 44.93227 | 16.18592 | 40182 ft | 422 kts | 324° |
| 2026-04-17 09:55 | 44.97986 | 16.13733 | 40184 ft | 422 kts | 324° |
| 2026-04-17 09:56 | 45.02746 | 16.08863 | 40182 ft | 422 kts | 324° |
| 2026-04-17 09:56 | 45.07481 | 16.04007 | 40186 ft | 422 kts | 324° |
| 2026-04-17 09:57 | 45.12233 | 15.99123 | 40184 ft | 421 kts | 324° |
| 2026-04-17 09:57 | 45.16969 | 15.94248 | 40190 ft | 421 kts | 324° |
| 2026-04-17 09:58 | 45.21717 | 15.89380 | 40187 ft | 421 kts | 326° |
| 2026-04-17 09:58 | 45.26576 | 15.84736 | 40187 ft | 421 kts | 326° |
| 2026-04-17 09:59 | 45.31418 | 15.80070 | 40191 ft | 420 kts | 326° |
| 2026-04-17 09:59 | 45.36224 | 15.75427 | 40195 ft | 420 kts | 326° |
| 2026-04-17 10:00 | 45.41062 | 15.70742 | 40194 ft | 420 kts | 326° |
| 2026-04-17 10:00 | 45.45898 | 15.66048 | 40193 ft | 419 kts | 326° |
| 2026-04-17 10:01 | 45.50691 | 15.61387 | 40193 ft | 419 kts | 326° |
| 2026-04-17 10:01 | 45.55507 | 15.56693 | 40196 ft | 419 kts | 326° |
| 2026-04-17 10:02 | 45.60325 | 15.51987 | 40199 ft | 419 kts | 326° |
| 2026-04-17 10:02 | 45.65135 | 15.47280 | 40202 ft | 419 kts | 326° |
| 2026-04-17 10:03 | 45.69939 | 15.42568 | 40202 ft | 418 kts | 326° |
| 2026-04-17 10:03 | 45.74734 | 15.37857 | 40207 ft | 418 kts | 326° |
| 2026-04-17 10:04 | 45.79609 | 15.33343 | 40214 ft | 418 kts | 328° |
| 2026-04-17 10:04 | 45.84505 | 15.28941 | 40208 ft | 417 kts | 328° |
| 2026-04-17 10:05 | 45.89412 | 15.24505 | 40207 ft | 417 kts | 328° |
| 2026-04-17 10:05 | 45.94320 | 15.20057 | 40204 ft | 417 kts | 328° |
| 2026-04-17 10:06 | 45.99219 | 15.15607 | 40201 ft | 417 kts | 327° |
| 2026-04-17 10:06 | 46.04126 | 15.11141 | 40203 ft | 417 kts | 327° |
| 2026-04-17 10:07 | 46.09029 | 15.06669 | 40198 ft | 417 kts | 327° |
| 2026-04-17 10:07 | 46.13934 | 15.02186 | 40197 ft | 417 kts | 327° |
| 2026-04-17 10:08 | 46.18815 | 14.97716 | 40202 ft | 418 kts | 327° |
| 2026-04-17 10:08 | 46.23719 | 14.93213 | 40199 ft | 417 kts | 327° |
| 2026-04-17 10:09 | 46.28621 | 14.88704 | 40218 ft | 418 kts | 327° |
| 2026-04-17 10:09 | 46.33519 | 14.84188 | 40207 ft | 417 kts | 327° |
| 2026-04-17 10:10 | 46.38422 | 14.79658 | 40211 ft | 418 kts | 327° |
| 2026-04-17 10:11 | 46.45741 | 14.72878 | 40202 ft | 417 kts | 327° |
| 2026-04-17 10:11 | 46.50643 | 14.68324 | 40216 ft | 417 kts | 327° |
| 2026-04-17 10:12 | 46.55538 | 14.63767 | 40224 ft | 418 kts | 327° |
| 2026-04-17 10:12 | 46.60437 | 14.59197 | 40227 ft | 418 kts | 327° |
| 2026-04-17 10:13 | 46.65300 | 14.54650 | 40233 ft | 418 kts | 327° |
| 2026-04-17 10:13 | 46.70191 | 14.50067 | 40235 ft | 418 kts | 327° |
| 2026-04-17 10:14 | 46.75088 | 14.45468 | 40239 ft | 418 kts | 327° |
| 2026-04-17 10:14 | 46.79975 | 14.40869 | 40233 ft | 418 kts | 326° |
| 2026-04-17 10:15 | 46.84866 | 14.36256 | 40233 ft | 418 kts | 327° |
| 2026-04-17 10:15 | 46.89748 | 14.31641 | 40228 ft | 418 kts | 326° |
| 2026-04-17 10:16 | 46.94592 | 14.27052 | 40227 ft | 418 kts | 326° |
| 2026-04-17 10:16 | 46.99469 | 14.22422 | 40223 ft | 417 kts | 326° |
| 2026-04-17 10:17 | 47.04334 | 14.17792 | 40230 ft | 417 kts | 326° |
| 2026-04-17 10:17 | 47.09210 | 14.13142 | 40232 ft | 417 kts | 326° |
| 2026-04-17 10:18 | 47.14074 | 14.08494 | 40231 ft | 417 kts | 326° |
| 2026-04-17 10:18 | 47.18941 | 14.03831 | 40231 ft | 417 kts | 326° |
| 2026-04-17 10:19 | 47.23775 | 13.99191 | 40243 ft | 418 kts | 326° |
| 2026-04-17 10:19 | 47.28645 | 13.94505 | 40240 ft | 417 kts | 326° |
| 2026-04-17 10:20 | 47.33515 | 13.89809 | 40248 ft | 418 kts | 326° |
| 2026-04-17 10:20 | 47.38390 | 13.85098 | 40238 ft | 418 kts | 326° |
| 2026-04-17 10:21 | 47.43250 | 13.80391 | 40235 ft | 418 kts | 326° |
| 2026-04-17 10:21 | 47.48109 | 13.75673 | 40243 ft | 418 kts | 326° |
| 2026-04-17 10:22 | 47.52973 | 13.70940 | 40245 ft | 418 kts | 326° |
| 2026-04-17 10:22 | 47.57802 | 13.66232 | 40235 ft | 418 kts | 325° |
| 2026-04-17 10:23 | 47.62664 | 13.61480 | 40245 ft | 419 kts | 325° |
| 2026-04-17 10:23 | 47.67529 | 13.56714 | 40234 ft | 419 kts | 325° |
| 2026-04-17 10:24 | 47.72391 | 13.51941 | 40249 ft | 420 kts | 325° |
| 2026-04-17 10:24 | 47.76961 | 13.47443 | 40239 ft | 419 kts | 325° |
| 2026-04-17 10:25 | 47.81796 | 13.42675 | 40240 ft | 420 kts | 325° |
| 2026-04-17 10:25 | 47.86662 | 13.37866 | 40237 ft | 420 kts | 325° |
| 2026-04-17 10:26 | 47.91526 | 13.33047 | 40247 ft | 420 kts | 325° |
| 2026-04-17 10:26 | 47.96395 | 13.28211 | 40242 ft | 420 kts | 325° |
| 2026-04-17 10:27 | 48.01260 | 13.23371 | 40244 ft | 421 kts | 325° |
| 2026-04-17 10:27 | 48.06124 | 13.18522 | 40244 ft | 421 kts | 324° |
| 2026-04-17 10:28 | 48.10996 | 13.13654 | 40247 ft | 421 kts | 324° |
| 2026-04-17 10:28 | 48.15858 | 13.08784 | 40246 ft | 421 kts | 324° |
| 2026-04-17 10:29 | 48.20701 | 13.03923 | 40245 ft | 421 kts | 324° |
| 2026-04-17 10:29 | 48.25362 | 12.98617 | 40247 ft | 420 kts | 320° |
| 2026-04-17 10:30 | 48.29935 | 12.93123 | 40249 ft | 421 kts | 320° |
| 2026-04-17 10:30 | 48.34522 | 12.87649 | 40244 ft | 421 kts | 320° |
| 2026-04-17 10:31 | 48.39111 | 12.82167 | 40240 ft | 422 kts | 320° |
| 2026-04-17 10:31 | 48.43707 | 12.76664 | 40245 ft | 422 kts | 320° |
| 2026-04-17 10:32 | 48.48303 | 12.71147 | 40247 ft | 422 kts | 320° |
| 2026-04-17 10:32 | 48.52893 | 12.65625 | 40243 ft | 422 kts | 320° |
| 2026-04-17 10:33 | 48.57460 | 12.60117 | 40248 ft | 423 kts | 320° |
| 2026-04-17 10:33 | 48.62055 | 12.54563 | 40241 ft | 422 kts | 320° |
| 2026-04-17 10:34 | 48.65900 | 12.49904 | 40249 ft | 423 kts | 320° |
| 2026-04-17 10:34 | 48.70464 | 12.44364 | 40245 ft | 423 kts | 320° |
| 2026-04-17 10:35 | 48.75048 | 12.38784 | 40246 ft | 423 kts | 320° |
| 2026-04-17 10:35 | 48.79633 | 12.33190 | 40253 ft | 423 kts | 319° |
| 2026-04-17 10:36 | 48.84217 | 12.27585 | 40246 ft | 423 kts | 319° |
| 2026-04-17 10:36 | 48.88583 | 12.21637 | 40220 ft | 419 kts | 304° |
| 2026-04-17 10:37 | 48.91742 | 12.14158 | 40241 ft | 421 kts | 301° |
| 2026-04-17 10:37 | 48.94826 | 12.06594 | 40248 ft | 421 kts | 301° |
| 2026-04-17 10:38 | 48.97872 | 11.98973 | 40247 ft | 421 kts | 301° |
| 2026-04-17 10:38 | 49.00902 | 11.91348 | 40245 ft | 421 kts | 300° |
| 2026-04-17 10:39 | 49.03929 | 11.83705 | 40244 ft | 421 kts | 300° |
| 2026-04-17 10:39 | 49.06934 | 11.76098 | 40249 ft | 421 kts | 300° |
| 2026-04-17 10:40 | 49.09953 | 11.68432 | 40248 ft | 422 kts | 300° |
| 2026-04-17 10:40 | 49.12970 | 11.60748 | 40252 ft | 422 kts | 300° |
| 2026-04-17 10:41 | 49.15979 | 11.53062 | 40245 ft | 422 kts | 300° |
| 2026-04-17 10:41 | 49.18986 | 11.45362 | 40238 ft | 422 kts | 300° |
| 2026-04-17 10:42 | 49.21983 | 11.37661 | 40247 ft | 422 kts | 300° |
| 2026-04-17 10:42 | 49.24981 | 11.29937 | 40241 ft | 421 kts | 300° |
| 2026-04-17 10:43 | 49.27953 | 11.22257 | 40231 ft | 421 kts | 300° |
| 2026-04-17 10:43 | 49.30934 | 11.14531 | 40239 ft | 421 kts | 300° |
| 2026-04-17 10:44 | 49.33915 | 11.06784 | 40236 ft | 421 kts | 300° |
| 2026-04-17 10:44 | 49.36887 | 10.99043 | 40236 ft | 421 kts | 300° |
| 2026-04-17 10:45 | 49.40171 | 10.91615 | 40244 ft | 421 kts | 309° |
| 2026-04-17 10:45 | 49.43935 | 10.84692 | 40239 ft | 422 kts | 308° |
| 2026-04-17 10:46 | 49.47699 | 10.77774 | 40248 ft | 422 kts | 308° |
| 2026-04-17 10:46 | 49.51464 | 10.70846 | 40249 ft | 422 kts | 308° |
| 2026-04-17 10:47 | 49.55207 | 10.63939 | 40240 ft | 422 kts | 308° |
| 2026-04-17 10:47 | 49.58963 | 10.56992 | 40241 ft | 421 kts | 308° |
| 2026-04-17 10:48 | 49.62711 | 10.50041 | 40237 ft | 421 kts | 308° |
| 2026-04-17 10:48 | 49.66457 | 10.43075 | 40242 ft | 421 kts | 308° |
| 2026-04-17 10:49 | 49.70200 | 10.36095 | 40246 ft | 421 kts | 308° |
| 2026-04-17 10:49 | 49.73914 | 10.29151 | 40240 ft | 421 kts | 308° |
| 2026-04-17 10:50 | 49.77643 | 10.22161 | 40238 ft | 421 kts | 307° |
| 2026-04-17 10:50 | 49.81369 | 10.15159 | 40240 ft | 421 kts | 307° |
| 2026-04-17 10:51 | 49.85089 | 10.08149 | 40238 ft | 421 kts | 307° |
| 2026-04-17 10:51 | 49.88797 | 10.01141 | 40235 ft | 421 kts | 307° |
| 2026-04-17 10:52 | 49.92511 | 9.94105 | 40233 ft | 421 kts | 307° |
| 2026-04-17 10:52 | 49.96193 | 9.87110 | 40232 ft | 421 kts | 307° |
| 2026-04-17 10:53 | 49.99895 | 9.80057 | 40235 ft | 421 kts | 307° |
| 2026-04-17 10:53 | 50.03591 | 9.72999 | 40226 ft | 420 kts | 307° |
| 2026-04-17 10:54 | 50.07275 | 9.65943 | 40225 ft | 420 kts | 307° |
| 2026-04-17 10:54 | 50.10958 | 9.58870 | 40227 ft | 420 kts | 307° |
| 2026-04-17 10:55 | 50.14636 | 9.51787 | 40224 ft | 420 kts | 307° |
| 2026-04-17 10:55 | 50.18316 | 9.44684 | 40224 ft | 421 kts | 307° |
| 2026-04-17 10:56 | 50.21993 | 9.37565 | 40222 ft | 421 kts | 307° |
| 2026-04-17 10:56 | 50.25660 | 9.30445 | 40225 ft | 421 kts | 306° |
| 2026-04-17 10:57 | 50.29301 | 9.23367 | 40232 ft | 421 kts | 306° |
| 2026-04-17 10:57 | 50.32965 | 9.16195 | 40226 ft | 420 kts | 304° |
| 2026-04-17 10:57 | 50.34357 | 9.12228 | 40215 ft | 414 kts | 288° |
| 2026-04-17 10:58 | 50.35281 | 9.07956 | 40226 ft | 416 kts | 288° |
| 2026-04-17 10:58 | 50.37098 | 8.99347 | 40223 ft | 416 kts | 287° |
| 2026-04-17 10:59 | 50.38837 | 8.90693 | 40220 ft | 416 kts | 286° |
| 2026-04-17 10:59 | 50.40548 | 8.82027 | 40227 ft | 416 kts | 286° |
| 2026-04-17 11:00 | 50.42249 | 8.73366 | 40233 ft | 416 kts | 286° |
| 2026-04-17 11:00 | 50.43933 | 8.64749 | 40218 ft | 416 kts | 286° |
| 2026-04-17 11:01 | 50.45075 | 8.55895 | 40231 ft | 415 kts | 279° |
| 2026-04-17 11:01 | 50.45988 | 8.46952 | 40227 ft | 415 kts | 278° |
| 2026-04-17 11:02 | 50.46881 | 8.37979 | 40228 ft | 415 kts | 278° |
| 2026-04-17 11:02 | 50.47763 | 8.29034 | 40235 ft | 415 kts | 278° |
| 2026-04-17 11:03 | 50.48638 | 8.20082 | 40228 ft | 415 kts | 278° |
| 2026-04-17 11:03 | 50.49505 | 8.11128 | 40227 ft | 415 kts | 278° |
| 2026-04-17 11:03 | 50.49934 | 8.06679 | 39864 ft | 411 kts | 278° |
| 2026-04-17 11:04 | 50.50361 | 8.02225 | 39208 ft | 412 kts | 278° |
| 2026-04-17 11:04 | 50.50788 | 7.97759 | 38404 ft | 414 kts | 278° |
| 2026-04-17 11:04 | 50.51207 | 7.93354 | 37766 ft | 411 kts | 278° |
| 2026-04-17 11:04 | 50.51625 | 7.88937 | 37260 ft | 405 kts | 278° |
| 2026-04-17 11:05 | 50.52036 | 7.84587 | 36763 ft | 400 kts | 278° |
| 2026-04-17 11:05 | 50.52440 | 7.80282 | 36239 ft | 396 kts | 278° |
| 2026-04-17 11:05 | 50.52838 | 7.76031 | 35722 ft | 392 kts | 278° |
| 2026-04-17 11:05 | 50.53232 | 7.71804 | 35203 ft | 388 kts | 278° |
| 2026-04-17 11:06 | 50.53620 | 7.67629 | 34699 ft | 384 kts | 278° |
| 2026-04-17 11:06 | 50.54003 | 7.63484 | 34190 ft | 381 kts | 279° |
| 2026-04-17 11:06 | 50.54380 | 7.59382 | 33611 ft | 377 kts | 278° |
| 2026-04-17 11:06 | 50.54752 | 7.55328 | 33091 ft | 373 kts | 278° |
| 2026-04-17 11:07 | 50.55119 | 7.51311 | 32614 ft | 369 kts | 278° |
| 2026-04-17 11:07 | 50.55482 | 7.47339 | 32153 ft | 365 kts | 278° |
| 2026-04-17 11:07 | 50.55825 | 7.43410 | 31668 ft | 362 kts | 275° |
| 2026-04-17 11:07 | 50.55846 | 7.39464 | 31132 ft | 360 kts | 271° |
| 2026-04-17 11:08 | 50.55863 | 7.35546 | 30687 ft | 357 kts | 271° |
| 2026-04-17 11:08 | 50.55897 | 7.31655 | 30249 ft | 354 kts | 271° |
| 2026-04-17 11:08 | 50.55940 | 7.27805 | 29747 ft | 351 kts | 271° |
| 2026-04-17 11:08 | 50.55986 | 7.23984 | 29299 ft | 347 kts | 272° |
| 2026-04-17 11:09 | 50.56032 | 7.20213 | 28879 ft | 343 kts | 272° |
| 2026-04-17 11:09 | 50.56023 | 7.16529 | 28450 ft | 340 kts | 269° |
| 2026-04-17 11:09 | 50.55938 | 7.12828 | 28030 ft | 336 kts | 269° |
| 2026-04-17 11:10 | 50.55789 | 7.05571 | 27311 ft | 328 kts | 269° |
| 2026-04-17 11:10 | 50.55718 | 7.02006 | 26938 ft | 325 kts | 269° |
| 2026-04-17 11:10 | 50.55647 | 6.98471 | 26574 ft | 322 kts | 269° |
| 2026-04-17 11:10 | 50.55572 | 6.94971 | 26195 ft | 320 kts | 269° |
| 2026-04-17 11:11 | 50.55490 | 6.91487 | 25804 ft | 318 kts | 269° |
| 2026-04-17 11:11 | 50.55408 | 6.88014 | 25466 ft | 315 kts | 269° |
| 2026-04-17 11:11 | 50.55326 | 6.84588 | 25124 ft | 313 kts | 269° |
| 2026-04-17 11:11 | 50.55245 | 6.81190 | 24794 ft | 310 kts | 269° |
| 2026-04-17 11:12 | 50.55162 | 6.77796 | 24452 ft | 312 kts | 269° |
| 2026-04-17 11:12 | 50.55077 | 6.74359 | 24103 ft | 317 kts | 269° |
| 2026-04-17 11:12 | 50.54990 | 6.70875 | 23738 ft | 319 kts | 269° |
| 2026-04-17 11:12 | 50.55146 | 6.67408 | 23276 ft | 318 kts | 282° |
| 2026-04-17 11:13 | 50.55575 | 6.64013 | 22927 ft | 314 kts | 281° |
| 2026-04-17 11:13 | 50.55976 | 6.60654 | 22610 ft | 310 kts | 281° |
| 2026-04-17 11:13 | 50.56376 | 6.57341 | 22275 ft | 307 kts | 281° |
| 2026-04-17 11:13 | 50.56771 | 6.54068 | 21944 ft | 303 kts | 281° |
| 2026-04-17 11:14 | 50.57163 | 6.50819 | 21623 ft | 300 kts | 281° |
| 2026-04-17 11:14 | 50.57545 | 6.47647 | 21305 ft | 297 kts | 281° |
| 2026-04-17 11:14 | 50.57927 | 6.44463 | 20978 ft | 295 kts | 280° |
| 2026-04-17 11:14 | 50.58308 | 6.41285 | 20659 ft | 299 kts | 280° |
| 2026-04-17 11:15 | 50.58695 | 6.38045 | 20328 ft | 303 kts | 280° |
| 2026-04-17 11:15 | 50.59086 | 6.34772 | 20000 ft | 304 kts | 280° |
| 2026-04-17 11:15 | 50.59476 | 6.31496 | 19676 ft | 304 kts | 280° |
| 2026-04-17 11:15 | 50.59863 | 6.28234 | 19352 ft | 303 kts | 280° |
| 2026-04-17 11:16 | 50.60247 | 6.24986 | 19003 ft | 301 kts | 280° |
| 2026-04-17 11:16 | 50.60629 | 6.21752 | 18657 ft | 300 kts | 280° |
| 2026-04-17 11:16 | 50.61008 | 6.18536 | 18303 ft | 297 kts | 279° |
| 2026-04-17 11:16 | 50.61383 | 6.15345 | 17978 ft | 294 kts | 279° |
| 2026-04-17 11:17 | 50.61753 | 6.12187 | 17654 ft | 291 kts | 279° |
| 2026-04-17 11:17 | 50.62118 | 6.09065 | 17338 ft | 288 kts | 279° |
| 2026-04-17 11:17 | 50.62478 | 6.05977 | 17027 ft | 285 kts | 279° |
| 2026-04-17 11:17 | 50.62830 | 6.02954 | 16720 ft | 284 kts | 279° |
| 2026-04-17 11:18 | 50.63185 | 5.99899 | 16413 ft | 282 kts | 279° |
| 2026-04-17 11:18 | 50.63536 | 5.96869 | 16106 ft | 279 kts | 279° |
| 2026-04-17 11:18 | 50.63882 | 5.93868 | 15805 ft | 279 kts | 279° |
| 2026-04-17 11:18 | 50.64231 | 5.90840 | 15493 ft | 284 kts | 279° |
| 2026-04-17 11:19 | 50.64587 | 5.87756 | 15178 ft | 287 kts | 279° |
| 2026-04-17 11:19 | 50.65023 | 5.84677 | 14835 ft | 289 kts | 289° |
| 2026-04-17 11:19 | 50.65596 | 5.82780 | 14614 ft | 289 kts | 295° |
| 2026-04-17 11:19 | 50.66506 | 5.79977 | 14325 ft | 286 kts | 294° |
| 2026-04-17 11:20 | 50.67396 | 5.77201 | 14043 ft | 283 kts | 294° |
| 2026-04-17 11:20 | 50.68282 | 5.74444 | 13724 ft | 280 kts | 294° |
| 2026-04-17 11:20 | 50.69161 | 5.71711 | 13406 ft | 278 kts | 294° |
| 2026-04-17 11:20 | 50.70028 | 5.69011 | 13116 ft | 275 kts | 294° |
| 2026-04-17 11:21 | 50.70889 | 5.66328 | 12823 ft | 272 kts | 294° |
| 2026-04-17 11:21 | 50.71746 | 5.63654 | 12536 ft | 276 kts | 294° |
| 2026-04-17 11:21 | 50.72618 | 5.60930 | 12231 ft | 281 kts | 294° |
| 2026-04-17 11:21 | 50.73502 | 5.58166 | 11939 ft | 282 kts | 294° |
| 2026-04-17 11:22 | 50.74384 | 5.55403 | 11640 ft | 282 kts | 294° |
| 2026-04-17 11:22 | 50.75268 | 5.52635 | 11346 ft | 283 kts | 294° |
| 2026-04-17 11:22 | 50.76153 | 5.49859 | 11046 ft | 283 kts | 294° |
| 2026-04-17 11:22 | 50.77034 | 5.47093 | 10743 ft | 282 kts | 294° |
| 2026-04-17 11:23 | 50.77911 | 5.44335 | 10448 ft | 279 kts | 294° |
| 2026-04-17 11:23 | 50.78770 | 5.41630 | 10308 ft | 271 kts | 294° |
| 2026-04-17 11:23 | 50.79608 | 5.38990 | 10072 ft | 267 kts | 294° |
| 2026-04-17 11:23 | 50.80439 | 5.36372 | 9748 ft | 266 kts | 294° |
| 2026-04-17 11:24 | 50.81264 | 5.33765 | 9453 ft | 264 kts | 294° |
| 2026-04-17 11:24 | 50.82084 | 5.31175 | 9142 ft | 262 kts | 294° |
| 2026-04-17 11:24 | 50.82891 | 5.28620 | 8753 ft | 264 kts | 294° |
| 2026-04-17 11:24 | 50.83726 | 5.25977 | 8387 ft | 265 kts | 294° |
| 2026-04-17 11:25 | 50.84537 | 5.23399 | 8079 ft | 265 kts | 294° |
| 2026-04-17 11:25 | 50.85356 | 5.20802 | 7785 ft | 263 kts | 294° |
| 2026-04-17 11:25 | 50.86170 | 5.18220 | 7497 ft | 262 kts | 294° |
| 2026-04-17 11:25 | 50.86978 | 5.15647 | 7209 ft | 260 kts | 294° |
| 2026-04-17 11:26 | 50.87810 | 5.13112 | 6965 ft | 259 kts | 299° |
| 2026-04-17 11:26 | 50.88787 | 5.10715 | 6717 ft | 257 kts | 301° |
| 2026-04-17 11:26 | 50.89753 | 5.08340 | 6497 ft | 257 kts | 301° |
| 2026-04-17 11:26 | 50.90710 | 5.05965 | 6255 ft | 254 kts | 300° |
| 2026-04-17 11:27 | 50.91647 | 5.03622 | 6020 ft | 250 kts | 300° |
| 2026-04-17 11:27 | 50.92568 | 5.01307 | 5796 ft | 247 kts | 300° |
| 2026-04-17 11:27 | 50.93480 | 4.99013 | 5576 ft | 244 kts | 300° |
| 2026-04-17 11:27 | 50.94379 | 4.96746 | 5352 ft | 242 kts | 300° |
| 2026-04-17 11:28 | 50.95277 | 4.94504 | 5116 ft | 240 kts | 300° |
| 2026-04-17 11:28 | 50.96169 | 4.92276 | 4888 ft | 237 kts | 300° |
| 2026-04-17 11:28 | 50.97049 | 4.90075 | 4664 ft | 234 kts | 300° |
| 2026-04-17 11:28 | 50.97663 | 4.87744 | 4401 ft | 228 kts | 273° |
| 2026-04-17 11:29 | 50.97435 | 4.85337 | 4181 ft | 223 kts | 249° |
| 2026-04-17 11:29 | 50.96926 | 4.83034 | 3999 ft | 218 kts | 250° |
| 2026-04-17 11:29 | 50.96431 | 4.80787 | 3837 ft | 214 kts | 249° |
| 2026-04-17 11:29 | 50.95934 | 4.78569 | 3629 ft | 214 kts | 248° |
| 2026-04-17 11:30 | 50.95425 | 4.76342 | 3332 ft | 214 kts | 249° |
| 2026-04-17 11:30 | 50.94916 | 4.74127 | 3081 ft | 212 kts | 249° |
| 2026-04-17 11:30 | 50.94414 | 4.71945 | 2817 ft | 209 kts | 249° |
| 2026-04-17 11:30 | 50.93915 | 4.69779 | 2521 ft | 210 kts | 249° |
| 2026-04-17 11:31 | 50.93419 | 4.67633 | 2269 ft | 206 kts | 249° |
| 2026-04-17 11:31 | 50.92909 | 4.65525 | 1935 ft | 201 kts | 248° |
| 2026-04-17 11:31 | 50.92409 | 4.63530 | 1625 ft | 189 kts | 249° |
| 2026-04-17 11:31 | 50.92034 | 4.61669 | 1578 ft | 172 kts | 253° |
| 2026-04-17 11:32 | 50.91709 | 4.59870 | 1276 ft | 161 kts | 252° |
| 2026-04-17 11:32 | 50.91351 | 4.58308 | 1123 ft | 147 kts | 247° |
| 2026-04-17 11:32 | 50.90969 | 4.56827 | 814 ft | 143 kts | 247° |
| 2026-04-17 11:32 | 50.90623 | 4.55368 | 642 ft | 139 kts | 249° |
| 2026-04-17 11:33 | 50.90283 | 4.53935 | 431 ft | 135 kts | 248° |
| 2026-04-17 11:33 | 50.89948 | 4.52546 | 248 ft | 133 kts | 249° |
| 2026-04-17 11:33 | 50.89649 | 4.51260 | 176 ft | 105 kts | 249° |
| 2026-04-17 11:33 | 50.89473 | 4.50505 | 178 ft | 44 kts | 250° |
| 2026-04-17 11:34 | 50.89393 | 4.50158 | 179 ft | 38 kts | 250° |
| 2026-04-17 11:34 | 50.89333 | 4.49827 | 180 ft | 27 kts | 272° |
| 2026-04-17 11:34 | 50.89421 | 4.49564 | 170 ft | 25 kts | 307° |
| 2026-04-17 11:34 | 50.89504 | 4.49386 | 166 ft | 15 kts | 306° |
| 2026-04-17 11:35 | 50.89561 | 4.49269 | 160 ft | 15 kts | 309° |
| 2026-04-17 11:35 | 50.89641 | 4.49150 | 155 ft | 15 kts | 348° |
| 2026-04-17 11:35 | 50.89761 | 4.49192 | 148 ft | 21 kts | 14° |
| 2026-04-17 11:35 | 50.89876 | 4.49238 | 141 ft | 19 kts | 15° |
| 2026-04-17 11:36 | 50.90031 | 4.49303 | 134 ft | 25 kts | 23° |
| 2026-04-17 11:36 | 50.90188 | 4.49367 | 129 ft | 24 kts | 14° |
| 2026-04-17 11:36 | 50.90306 | 4.49404 | 128 ft | 14 kts | 344° |
| 2026-04-17 11:36 | 50.90317 | 4.49291 | 126 ft | 11 kts | 247° |
| 2026-04-17 11:37 | 50.90279 | 4.49160 | 127 ft | 15 kts | 245° |
| 2026-04-17 11:37 | 50.90236 | 4.49009 | 127 ft | 14 kts | 245° |
| 2026-04-17 11:37 | 50.90190 | 4.48848 | 126 ft | 18 kts | 245° |
| 2026-04-17 11:37 | 50.90144 | 4.48689 | 126 ft | 16 kts | 245° |
| 2026-04-17 11:38 | 50.90100 | 4.48600 | 127 ft | 4 kts | 184° |
| 2026-04-17 11:38 | 50.90087 | 4.48610 | 129 ft | 2 kts | 141° |
| 2026-04-17 11:38 | 50.90079 | 4.48617 | 129 ft | 1 kts | 150° |
| 2026-04-17 11:38 | 50.90045 | 4.48636 | 133 ft | 0 kts | 155° |